Main page
METAR-TAF:

METAR-TAF

Airports :

Diori Hamani International Airport

Niamey, Niger

latitude: 13-29N, longitude: 002-10E, elevation: 223 m

Current weather observation

The report was made 33 minutes ago, at 11:00 UTC
Wind 6 kt from the South, varying between South/Southeast and Southwest
Temperature 33°C
Humidity 46%
Pressure 1015 hPa
Visibility 10 km or more
Broken clouds at a height of 1600 ft

METAR: DRRN 151100Z 18006KT 150V230 9999 BKN016 33/20 Q1015 NOSIG

Time: 12:33 (11:33 UTC)

Forecast

The report was made 6 hours and 33 minutes ago, at 05:00 UTC
Forecast valid from 15 at 06 UTC to 16 at 12 UTC
Wind 6 kt from the Southwest
Visibility: 8000 m
Probability 30% :
Temporary
from 15 at 14 UTC to 15 at 20 UTC
Wind 20 kt from the East with gusts up to 35 kt
Visibility: 1000 m
Broken clouds at a height of 1600 ft
Scattered clouds at a height of 2600 ft, Cumulonimbus.
thunderstorm, rain

TAF: DRRN 150500Z 1506/1612 22006KT 8000 NSC PROB30 TEMPO 1514/1520 08020G35KT 1000 BLU TSRA BKN016 SCT026CB

Weather observations and forecasts of more than 4000 airports (METAR and TAF reports).

The available stations are represented by yellow and red dots on the map.

Hover mouse over dot to see the name of the station.

Then click to see weather observations and forecasts.

To change the map : click on the green buttons with a black cross to zoom in, on the green button with a dash to zoom out, or on the green arrows for adjacent maps.


METAR-TAF: